Time,TemperatureF,DewpointF,PressureIn,WindDirection,WindDirectionDegrees,WindSpeedMPH,WindSpeedGustMPH,Humidity,HourlyPrecipIn,Conditions,Clouds,dailyrainin,SoftwareType,DateUTC
2013-05-10 00:00:00,43.3,40.0,29.79,North,0,0.0,0.0,88,0.04,,,-99.99,VWS V12.07,2013-05-10 05:00:00,
2013-05-10 00:05:00,43.3,40.3,29.79,North,0,0.0,0.0,89,0.04,,,-99.99,VWS V12.07,2013-05-10 05:05:00,
2013-05-10 00:10:00,43.2,40.1,29.79,North,0,0.0,0.0,89,0.04,,,-99.99,VWS V12.07,2013-05-10 05:10:00,
2013-05-10 00:15:00,43.2,40.1,29.79,North,0,0.0,0.0,89,0.08,,,-99.99,VWS V12.07,2013-05-10 05:15:00,
2013-05-10 00:20:00,43.2,40.1,29.79,North,0,0.0,0.0,89,0.08,,,-99.99,VWS V12.07,2013-05-10 05:20:00,
2013-05-10 00:25:00,43.2,40.1,29.79,North,0,0.0,0.0,89,0.08,,,-99.99,VWS V12.07,2013-05-10 05:25:00,
2013-05-10 00:30:00,43.2,40.1,29.79,North,0,0.0,0.0,89,0.08,,,-99.99,VWS V12.07,2013-05-10 05:30:00,
2013-05-10 00:40:00,43.0,40.0,29.76,North,0,0.0,0.0,89,0.08,,,-99.99,VWS V12.07,2013-05-10 05:40:00,
2013-05-10 00:45:00,43.0,40.0,29.76,North,0,0.0,0.0,89,0.08,,,-99.99,VWS V12.07,2013-05-10 05:45:00,
2013-05-10 00:50:00,42.8,39.8,29.76,North,0,0.0,0.0,89,0.12,,,-99.99,VWS V12.07,2013-05-10 05:50:00,
2013-05-10 00:55:00,42.6,39.9,29.76,North,0,0.0,0.0,90,0.12,,,-99.99,VWS V12.07,2013-05-10 05:55:00,
2013-05-10 01:00:00,42.4,39.7,29.76,North,0,0.0,0.0,90,0.12,,,-99.99,VWS V12.07,2013-05-10 06:00:00,
2013-05-10 01:06:00,42.4,39.7,29.76,North,0,0.0,0.0,90,0.08,,,-99.99,VWS V12.07,2013-05-10 06:06:00,
2013-05-10 01:15:00,42.4,39.7,29.76,North,0,0.0,0.0,90,0.12,,,-99.99,VWS V12.07,2013-05-10 06:15:00,
2013-05-10 01:20:00,42.4,39.7,29.76,North,0,0.0,0.0,90,0.12,,,-99.99,VWS V12.07,2013-05-10 06:20:00,
2013-05-10 01:25:00,42.4,39.7,29.76,North,0,0.0,0.0,90,0.12,,,-99.99,VWS V12.07,2013-05-10 06:25:00,
2013-05-10 01:30:00,42.4,40.0,29.76,North,0,0.0,0.0,91,0.16,,,-99.99,VWS V12.07,2013-05-10 06:30:00,
2013-05-10 01:40:00,42.3,39.8,29.76,North,0,0.0,0.0,91,0.24,,,-99.99,VWS V12.07,2013-05-10 06:40:00,
2013-05-10 01:45:00,42.3,39.8,29.76,North,0,0.0,0.0,91,0.24,,,-99.99,VWS V12.07,2013-05-10 06:45:00,
2013-05-10 01:50:00,42.3,39.8,29.76,North,0,0.0,0.0,91,0.24,,,-99.99,VWS V12.07,2013-05-10 06:50:00,
2013-05-10 01:55:00,42.3,40.1,29.76,North,0,0.0,0.0,92,0.28,,,-99.99,VWS V12.07,2013-05-10 06:55:00,
2013-05-10 02:00:00,42.3,40.1,29.76,North,0,0.0,0.0,92,0.20,,,-99.99,VWS V12.07,2013-05-10 07:00:00,
2013-05-10 02:10:00,42.3,40.1,29.76,North,0,0.0,0.0,92,0.24,,,-99.99,VWS V12.07,2013-05-10 07:10:00,
2013-05-10 02:15:00,42.3,40.1,29.76,North,0,0.0,0.0,92,0.28,,,-99.99,VWS V12.07,2013-05-10 07:15:00,
2013-05-10 02:20:00,42.3,40.1,29.73,North,0,0.0,0.0,92,0.28,,,-99.99,VWS V12.07,2013-05-10 07:20:00,
2013-05-10 02:25:00,42.3,40.4,29.73,North,0,0.0,0.0,93,0.31,,,-99.99,VWS V12.07,2013-05-10 07:25:00,
2013-05-10 02:30:00,42.3,40.4,29.73,North,0,0.0,0.0,93,0.31,,,-99.99,VWS V12.07,2013-05-10 07:30:00,
2013-05-10 02:40:00,42.1,40.2,29.73,North,0,0.0,0.0,93,0.35,,,-99.99,VWS V12.07,2013-05-10 07:40:00,
2013-05-10 02:45:00,42.1,40.2,29.73,North,0,0.0,0.0,93,0.35,,,-99.99,VWS V12.07,2013-05-10 07:45:00,
2013-05-10 02:50:00,42.1,40.2,29.73,North,0,0.0,0.0,93,0.35,,,-99.99,VWS V12.07,2013-05-10 07:50:00,
2013-05-10 02:55:00,42.1,40.2,29.73,North,0,0.0,0.0,93,0.39,,,-99.99,VWS V12.07,2013-05-10 07:55:00,
2013-05-10 03:00:00,42.1,40.2,29.73,North,0,0.0,0.0,93,0.20,,,-99.99,VWS V12.07,2013-05-10 08:00:00,
2013-05-10 03:10:00,42.1,40.2,29.73,North,0,0.0,0.0,93,0.28,,,-99.99,VWS V12.07,2013-05-10 08:10:00,
2013-05-10 03:15:00,42.1,40.5,29.73,North,0,0.0,0.0,94,0.28,,,-99.99,VWS V12.07,2013-05-10 08:15:00,
2013-05-10 03:20:00,42.1,40.5,29.73,North,0,0.0,0.0,94,0.31,,,-99.99,VWS V12.07,2013-05-10 08:20:00,
2013-05-10 03:25:00,42.3,40.7,29.73,North,0,0.0,0.0,94,0.31,,,-99.99,VWS V12.07,2013-05-10 08:25:00,
2013-05-10 03:35:00,42.3,40.7,29.73,North,0,0.0,0.0,94,0.35,,,-99.99,VWS V12.07,2013-05-10 08:35:00,
2013-05-10 03:40:00,42.3,40.7,29.73,North,0,0.0,0.0,94,0.35,,,-99.99,VWS V12.07,2013-05-10 08:40:00,
2013-05-10 03:45:00,42.3,40.7,29.73,North,0,0.0,0.0,94,0.35,,,-99.99,VWS V12.07,2013-05-10 08:45:00,
2013-05-10 03:50:00,42.1,40.5,29.73,North,0,0.0,0.0,94,0.35,,,-99.99,VWS V12.07,2013-05-10 08:50:00,
2013-05-10 03:55:00,42.3,40.7,29.73,North,0,0.0,0.0,94,0.35,,,-99.99,VWS V12.07,2013-05-10 08:55:00,
2013-05-10 04:00:00,42.3,40.7,29.73,North,0,0.0,0.0,94,0.35,,,-99.99,VWS V12.07,2013-05-10 09:00:00,
2013-05-10 04:10:00,42.3,40.7,29.73,North,0,0.0,0.0,94,0.20,,,-99.99,VWS V12.07,2013-05-10 09:10:00,
2013-05-10 04:15:00,42.3,40.7,29.73,North,0,0.0,0.0,94,0.20,,,-99.99,VWS V12.07,2013-05-10 09:15:00,
2013-05-10 04:20:00,42.4,40.8,29.73,North,0,0.0,0.0,94,0.20,,,-99.99,VWS V12.07,2013-05-10 09:20:00,
2013-05-10 04:25:00,42.4,40.8,29.73,North,0,0.0,0.0,94,0.24,,,-99.99,VWS V12.07,2013-05-10 09:25:00,
2013-05-10 04:30:00,42.4,41.1,29.73,North,0,0.0,0.0,95,0.24,,,-99.99,VWS V12.07,2013-05-10 09:30:00,
2013-05-10 04:35:00,42.6,41.3,29.73,North,0,0.0,0.0,95,0.24,,,-99.99,VWS V12.07,2013-05-10 09:35:00,
2013-05-10 04:40:00,42.8,41.2,29.73,North,0,0.0,0.0,94,0.28,,,-99.99,VWS V12.07,2013-05-10 09:40:00,
2013-05-10 04:45:00,42.8,41.2,29.73,North,0,0.0,0.0,94,0.28,,,-99.99,VWS V12.07,2013-05-10 09:45:00,
2013-05-10 04:50:00,42.8,41.2,29.73,North,0,0.0,0.0,94,0.31,,,-99.99,VWS V12.07,2013-05-10 09:50:00,
2013-05-10 05:00:00,42.8,41.2,29.73,North,0,0.0,0.0,94,0.31,,,-99.99,VWS V12.07,2013-05-10 10:00:00,
2013-05-10 05:05:00,42.8,41.2,29.73,North,0,0.0,0.0,94,0.16,,,-99.99,VWS V12.07,2013-05-10 10:05:00,
2013-05-10 05:10:00,42.8,41.5,29.73,North,0,0.0,0.0,95,0.16,,,-99.99,VWS V12.07,2013-05-10 10:10:00,
2013-05-10 05:15:00,42.8,41.5,29.73,North,0,0.0,0.0,95,0.16,,,-99.99,VWS V12.07,2013-05-10 10:15:00,
2013-05-10 05:20:00,43.0,41.7,29.73,North,0,0.0,0.0,95,0.16,,,-99.99,VWS V12.07,2013-05-10 10:20:00,
2013-05-10 05:25:00,43.0,41.7,29.73,North,0,0.0,0.0,95,0.16,,,-99.99,VWS V12.07,2013-05-10 10:25:00,
2013-05-10 05:35:00,43.2,41.8,29.76,North,0,0.0,0.0,95,0.16,,,-99.99,VWS V12.07,2013-05-10 10:35:00,
2013-05-10 05:40:00,43.2,41.8,29.76,North,0,0.0,0.0,95,0.16,,,-99.99,VWS V12.07,2013-05-10 10:40:00,
2013-05-10 05:45:00,43.3,42.0,29.76,North,0,0.0,0.0,95,0.16,,,-99.99,VWS V12.07,2013-05-10 10:45:00,
2013-05-10 05:50:00,43.3,42.0,29.76,North,0,0.0,0.0,95,0.16,,,-99.99,VWS V12.07,2013-05-10 10:50:00,
2013-05-10 05:55:00,43.5,42.2,29.76,North,0,0.0,0.0,95,0.16,,,-99.99,VWS V12.07,2013-05-10 10:55:00,
2013-05-10 06:05:00,43.5,42.2,29.73,North,0,0.0,0.0,95,0.08,,,-99.99,VWS V12.07,2013-05-10 11:05:00,
2013-05-10 06:10:00,43.7,42.4,29.73,North,0,0.0,0.0,95,0.08,,,-99.99,VWS V12.07,2013-05-10 11:10:00,
2013-05-10 06:15:00,43.7,42.4,29.73,North,0,0.0,0.0,95,0.08,,,-99.99,VWS V12.07,2013-05-10 11:15:00,
2013-05-10 06:20:00,43.7,42.4,29.73,North,0,0.0,0.0,95,0.08,,,-99.99,VWS V12.07,2013-05-10 11:20:00,
2013-05-10 06:25:00,43.9,42.5,29.73,North,0,0.0,0.0,95,0.08,,,-99.99,VWS V12.07,2013-05-10 11:25:00,
2013-05-10 06:35:00,43.9,42.5,29.76,North,0,0.0,0.0,95,0.08,,,-99.99,VWS V12.07,2013-05-10 11:35:00,
2013-05-10 06:40:00,43.9,42.5,29.76,North,0,0.0,0.0,95,0.08,,,-99.99,VWS V12.07,2013-05-10 11:40:00,
2013-05-10 06:45:00,44.1,42.7,29.76,North,0,0.0,0.0,95,0.08,,,-99.99,VWS V12.07,2013-05-10 11:45:00,
2013-05-10 06:51:00,44.1,42.7,29.76,North,0,0.0,0.0,95,0.08,,,-99.99,VWS V12.07,2013-05-10 11:51:00,
2013-05-10 07:00:00,44.1,42.7,29.76,North,0,0.0,0.0,95,0.08,,,-99.99,VWS V12.07,2013-05-10 12:00:00,
2013-05-10 07:05:00,44.1,42.7,29.76,North,0,0.0,0.0,95,0.04,,,-99.99,VWS V12.07,2013-05-10 12:05:00,
2013-05-10 07:10:00,44.1,42.7,29.76,North,0,0.0,0.0,95,0.04,,,-99.99,VWS V12.07,2013-05-10 12:10:00,
2013-05-10 07:15:00,44.1,42.7,29.76,North,0,0.0,0.0,95,0.04,,,-99.99,VWS V12.07,2013-05-10 12:15:00,
2013-05-10 07:20:00,44.1,43.0,29.76,North,0,0.0,0.0,96,0.04,,,-99.99,VWS V12.07,2013-05-10 12:20:00,
2013-05-10 07:30:00,44.1,43.0,29.76,North,0,0.0,0.0,96,0.04,,,-99.99,VWS V12.07,2013-05-10 12:30:00,
2013-05-10 07:35:00,44.1,43.0,29.79,North,0,0.0,0.0,96,0.04,,,-99.99,VWS V12.07,2013-05-10 12:35:00,
2013-05-10 07:40:00,44.1,43.0,29.79,North,0,0.0,0.0,96,0.04,,,-99.99,VWS V12.07,2013-05-10 12:40:00,
2013-05-10 07:45:00,44.1,43.0,29.79,North,0,0.0,0.0,96,0.04,,,-99.99,VWS V12.07,2013-05-10 12:45:00,
2013-05-10 07:50:00,44.1,43.0,29.79,North,0,0.0,0.0,96,0.04,,,-99.99,VWS V12.07,2013-05-10 12:50:00,
2013-05-10 08:00:00,44.1,43.0,29.79,North,0,0.0,0.0,96,0.00,,,-99.99,VWS V12.07,2013-05-10 13:00:00,
2013-05-10 08:05:00,44.1,43.0,29.79,North,0,0.0,0.0,96,0.00,,,-99.99,VWS V12.07,2013-05-10 13:05:00,
2013-05-10 08:15:00,44.1,43.0,29.79,North,0,0.0,0.0,96,0.00,,,-99.99,VWS V12.07,2013-05-10 13:15:00,
2013-05-10 08:20:00,44.1,42.7,29.79,North,0,0.0,0.0,95,0.00,,,-99.99,VWS V12.07,2013-05-10 13:20:00,
2013-05-10 08:25:00,44.1,42.7,29.79,North,0,0.0,0.0,95,0.00,,,-99.99,VWS V12.07,2013-05-10 13:25:00,
2013-05-10 08:35:00,44.1,42.7,29.79,North,0,0.0,0.0,95,0.00,,,-99.99,VWS V12.07,2013-05-10 13:35:00,
2013-05-10 08:40:00,44.1,42.7,29.79,North,0,0.0,0.0,95,0.00,,,-99.99,VWS V12.07,2013-05-10 13:40:00,
2013-05-10 08:45:00,44.2,42.9,29.79,North,0,0.0,0.0,95,0.00,,,-99.99,VWS V12.07,2013-05-10 13:45:00,
2013-05-10 08:50:00,44.2,42.9,29.79,North,0,0.0,0.0,95,0.00,,,-99.99,VWS V12.07,2013-05-10 13:50:00,
2013-05-10 08:55:00,44.2,42.9,29.79,North,0,0.0,0.0,95,0.00,,,-99.99,VWS V12.07,2013-05-10 13:55:00,
2013-05-10 09:00:00,44.2,42.9,29.79,North,0,0.0,0.0,95,0.00,,,-99.99,VWS V12.07,2013-05-10 14:00:00,
2013-05-10 09:05:00,44.2,42.9,29.79,North,0,0.0,0.0,95,0.00,,,-99.99,VWS V12.07,2013-05-10 14:05:00,
2013-05-10 09:10:00,44.2,42.9,29.79,North,0,0.0,0.0,95,0.00,,,-99.99,VWS V12.07,2013-05-10 14:10:00,
2013-05-10 09:15:00,44.2,42.9,29.79,North,0,0.0,0.0,95,0.00,,,-99.99,VWS V12.07,2013-05-10 14:15:00,
2013-05-10 09:20:00,44.4,43.1,29.82,North,0,0.0,0.0,95,0.00,,,-99.99,VWS V12.07,2013-05-10 14:20:00,
2013-05-10 09:30:00,44.4,43.1,29.82,North,0,0.0,0.0,95,0.00,,,-99.99,VWS V12.07,2013-05-10 14:30:00,
2013-05-10 09:35:00,44.4,43.1,29.82,North,0,0.0,0.0,95,0.00,,,-99.99,VWS V12.07,2013-05-10 14:35:00,
2013-05-10 09:40:00,44.4,42.8,29.82,North,0,0.0,0.0,94,0.00,,,-99.99,VWS V12.07,2013-05-10 14:40:00,
2013-05-10 09:45:00,44.4,42.8,29.82,North,0,0.0,0.0,94,0.00,,,-99.99,VWS V12.07,2013-05-10 14:45:00,
2013-05-10 09:55:00,44.4,42.8,29.82,North,0,0.0,0.0,94,0.00,,,-99.99,VWS V12.07,2013-05-10 14:55:00,
2013-05-10 10:00:00,44.6,42.7,29.82,North,0,0.0,0.0,93,0.00,,,-99.99,VWS V12.07,2013-05-10 15:00:00,
2013-05-10 10:05:00,44.8,42.9,29.82,North,0,0.0,0.0,93,0.00,,,-99.99,VWS V12.07,2013-05-10 15:05:00,
2013-05-10 10:10:00,44.6,42.7,29.82,North,0,0.0,0.0,93,0.00,,,-99.99,VWS V12.07,2013-05-10 15:10:00,
2013-05-10 10:15:00,44.4,42.5,29.82,North,0,0.0,0.0,93,0.00,,,-99.99,VWS V12.07,2013-05-10 15:15:00,
2013-05-10 10:25:00,44.4,42.2,29.82,North,0,0.0,0.0,92,0.00,,,-99.99,VWS V12.07,2013-05-10 15:25:00,
2013-05-10 10:30:00,44.4,42.2,29.82,North,0,0.0,0.0,92,0.00,,,-99.99,VWS V12.07,2013-05-10 15:30:00,
2013-05-10 10:40:00,44.4,42.0,29.85,North,0,0.0,0.0,91,0.00,,,-99.99,VWS V12.07,2013-05-10 15:40:00,
2013-05-10 10:45:00,44.4,42.0,29.85,North,0,0.0,0.0,91,0.00,,,-99.99,VWS V12.07,2013-05-10 15:45:00,
2013-05-10 10:50:00,44.4,41.7,29.85,North,0,0.0,0.0,90,0.00,,,-99.99,VWS V12.07,2013-05-10 15:50:00,
2013-05-10 10:55:00,44.6,41.8,29.85,North,0,0.0,0.0,90,0.00,,,-99.99,VWS V12.07,2013-05-10 15:55:00,
2013-05-10 11:00:00,44.6,41.6,29.85,North,0,0.0,0.0,89,0.00,,,-99.99,VWS V12.07,2013-05-10 16:00:00,
2013-05-10 11:05:00,44.6,41.6,29.85,North,0,0.0,0.0,89,0.00,,,-99.99,VWS V12.07,2013-05-10 16:05:00,
2013-05-10 11:15:00,44.6,41.3,29.85,North,0,0.0,0.0,88,0.00,,,-99.99,VWS V12.07,2013-05-10 16:15:00,
2013-05-10 11:20:00,44.4,41.1,29.85,North,0,0.0,0.0,88,0.00,,,-99.99,VWS V12.07,2013-05-10 16:20:00,
2013-05-10 11:25:00,44.4,40.8,29.85,North,0,0.0,0.0,87,0.00,,,-99.99,VWS V12.07,2013-05-10 16:25:00,
2013-05-10 11:30:00,44.6,41.0,29.85,North,0,0.0,0.0,87,0.00,,,-99.99,VWS V12.07,2013-05-10 16:30:00,
2013-05-10 11:35:00,44.6,40.7,29.85,North,0,0.0,0.0,86,0.00,,,-99.99,VWS V12.07,2013-05-10 16:35:00,
2013-05-10 11:45:00,44.6,40.7,29.85,North,0,0.0,0.0,86,0.00,,,-99.99,VWS V12.07,2013-05-10 16:45:00,
2013-05-10 11:50:00,44.6,40.7,29.85,North,0,0.0,0.0,86,0.00,,,-99.99,VWS V12.07,2013-05-10 16:50:00,
2013-05-10 11:55:00,44.6,40.7,29.85,North,0,0.0,0.0,86,0.00,,,-99.99,VWS V12.07,2013-05-10 16:55:00,
2013-05-10 12:00:00,44.6,40.4,29.85,North,0,0.0,0.0,85,0.00,,,-99.99,VWS V12.07,2013-05-10 17:00:00,
2013-05-10 12:05:00,44.6,40.4,29.85,North,0,0.0,0.0,85,0.00,,,-99.99,VWS V12.07,2013-05-10 17:05:00,
2013-05-10 12:15:00,45.0,40.7,29.85,North,0,0.0,0.0,85,0.00,,,-99.99,VWS V12.07,2013-05-10 17:15:00,
2013-05-10 12:20:00,44.8,40.5,29.85,North,0,0.0,0.0,85,0.00,,,-99.99,VWS V12.07,2013-05-10 17:20:00,
2013-05-10 12:25:00,45.0,40.7,29.85,North,0,0.0,0.0,85,0.00,,,-99.99,VWS V12.07,2013-05-10 17:25:00,
2013-05-10 12:30:00,44.8,40.2,29.85,North,0,0.0,0.0,84,0.00,,,-99.99,VWS V12.07,2013-05-10 17:30:00,
2013-05-10 12:35:00,44.8,40.2,29.85,North,0,0.0,0.0,84,0.00,,,-99.99,VWS V12.07,2013-05-10 17:35:00,
2013-05-10 12:40:00,44.8,40.2,29.85,North,0,0.0,0.0,84,0.00,,,-99.99,VWS V12.07,2013-05-10 17:40:00,
2013-05-10 12:50:00,44.6,40.1,29.85,North,0,0.0,0.0,84,0.00,,,-99.99,VWS V12.07,2013-05-10 17:50:00,
2013-05-10 13:00:00,44.6,39.8,29.85,North,0,0.0,0.0,83,0.00,,,-99.99,VWS V12.07,2013-05-10 18:00:00,
2013-05-10 13:05:00,44.6,39.8,29.85,North,0,0.0,0.0,83,0.00,,,-99.99,VWS V12.07,2013-05-10 18:05:00,
2013-05-10 13:10:00,44.8,39.9,29.85,North,0,0.0,0.0,83,0.00,,,-99.99,VWS V12.07,2013-05-10 18:10:00,
2013-05-10 13:20:00,45.1,40.0,29.85,North,0,0.0,0.0,82,0.00,,,-99.99,VWS V12.07,2013-05-10 18:20:00,
2013-05-10 13:25:00,45.1,40.0,29.85,North,0,0.0,0.0,82,0.00,,,-99.99,VWS V12.07,2013-05-10 18:25:00,
2013-05-10 13:30:00,45.1,40.0,29.85,North,0,0.0,0.0,82,0.00,,,-99.99,VWS V12.07,2013-05-10 18:30:00,
2013-05-10 13:40:00,45.3,39.8,29.85,North,0,0.0,0.0,81,0.00,,,-99.99,VWS V12.07,2013-05-10 18:40:00,
2013-05-10 13:50:00,45.5,39.7,29.85,North,0,0.0,0.0,80,0.00,,,-99.99,VWS V12.07,2013-05-10 18:50:00,
2013-05-10 13:55:00,45.5,39.7,29.85,North,0,0.0,0.0,80,0.00,,,-99.99,VWS V12.07,2013-05-10 18:55:00,
2013-05-10 14:00:00,45.5,39.4,29.85,North,0,0.0,0.0,79,0.00,,,-99.99,VWS V12.07,2013-05-10 19:00:00,
2013-05-10 14:10:00,45.7,39.2,29.85,North,0,0.0,0.0,78,0.00,,,-99.99,VWS V12.07,2013-05-10 19:10:00,
2013-05-10 14:20:00,46.2,39.4,29.88,North,0,0.0,0.0,77,0.00,,,-99.99,VWS V12.07,2013-05-10 19:20:00,
2013-05-10 14:25:00,46.4,39.6,29.88,North,0,0.0,0.0,77,0.00,,,-99.99,VWS V12.07,2013-05-10 19:25:00,
2013-05-10 14:30:00,46.4,39.3,29.88,North,0,0.0,0.0,76,0.00,,,-99.99,VWS V12.07,2013-05-10 19:30:00,
2013-05-10 14:35:00,46.6,39.4,29.85,North,0,0.0,0.0,76,0.00,,,-99.99,VWS V12.07,2013-05-10 19:35:00,
2013-05-10 14:45:00,46.8,39.6,29.85,North,0,0.0,0.0,76,0.00,,,-99.99,VWS V12.07,2013-05-10 19:45:00,
2013-05-10 14:50:00,46.8,39.3,29.85,North,0,0.0,0.0,75,0.00,,,-99.99,VWS V12.07,2013-05-10 19:50:00,
2013-05-10 14:55:00,46.8,39.3,29.85,North,0,0.0,0.0,75,0.00,,,-99.99,VWS V12.07,2013-05-10 19:55:00,
2013-05-10 15:00:00,46.9,39.4,29.85,North,0,0.0,0.0,75,0.00,,,-99.99,VWS V12.07,2013-05-10 20:00:00,
2013-05-10 15:05:00,46.8,39.3,29.85,North,0,0.0,0.0,75,0.00,,,-99.99,VWS V12.07,2013-05-10 20:05:00,
2013-05-10 15:10:00,46.8,38.9,29.85,North,0,0.0,0.0,74,0.00,,,-99.99,VWS V12.07,2013-05-10 20:10:00,
2013-05-10 15:15:00,46.9,39.1,29.85,North,0,0.0,0.0,74,0.00,,,-99.99,VWS V12.07,2013-05-10 20:15:00,
2013-05-10 15:20:00,46.9,39.1,29.85,North,0,0.0,0.0,74,0.00,,,-99.99,VWS V12.07,2013-05-10 20:20:00,
2013-05-10 15:25:00,47.1,38.9,29.85,North,0,0.0,0.0,73,0.00,,,-99.99,VWS V12.07,2013-05-10 20:25:00,
2013-05-10 15:30:00,47.3,39.1,29.85,North,0,0.0,0.0,73,0.00,,,-99.99,VWS V12.07,2013-05-10 20:30:00,
2013-05-10 15:40:00,47.3,38.7,29.85,North,0,0.0,0.0,72,0.00,,,-99.99,VWS V12.07,2013-05-10 20:40:00,
2013-05-10 15:45:00,47.5,38.9,29.85,North,0,0.0,0.0,72,0.00,,,-99.99,VWS V12.07,2013-05-10 20:45:00,
2013-05-10 15:50:00,47.5,38.9,29.85,North,0,0.0,0.0,72,0.00,,,-99.99,VWS V12.07,2013-05-10 20:50:00,
2013-05-10 15:55:00,47.7,39.1,29.85,North,0,0.0,0.0,72,0.00,,,-99.99,VWS V12.07,2013-05-10 20:55:00,
2013-05-10 16:00:00,47.7,39.1,29.85,North,0,0.0,0.0,72,0.00,,,-99.99,VWS V12.07,2013-05-10 21:00:00,
2013-05-10 16:10:00,47.8,38.9,29.85,North,0,0.0,0.0,71,0.00,,,-99.99,VWS V12.07,2013-05-10 21:10:00,
2013-05-10 16:20:00,47.8,38.9,29.85,North,0,0.0,0.0,71,0.00,,,-99.99,VWS V12.07,2013-05-10 21:20:00,
2013-05-10 16:26:00,48.0,39.1,29.85,North,0,0.0,0.0,71,0.00,,,-99.99,VWS V12.07,2013-05-10 21:26:00,
2013-05-10 16:35:00,48.2,38.9,29.85,North,0,0.0,0.0,70,0.00,,,-99.99,VWS V12.07,2013-05-10 21:35:00,
2013-05-10 16:40:00,48.2,38.9,29.85,North,0,0.0,0.0,70,0.00,,,-99.99,VWS V12.07,2013-05-10 21:40:00,
2013-05-10 16:45:00,48.4,39.1,29.85,North,0,0.0,0.0,70,0.00,,,-99.99,VWS V12.07,2013-05-10 21:45:00,
2013-05-10 16:50:00,48.4,39.1,29.85,North,0,0.0,0.0,70,0.00,,,-99.99,VWS V12.07,2013-05-10 21:50:00,
2013-05-10 16:55:00,48.2,38.5,29.85,North,0,0.0,0.0,69,0.00,,,-99.99,VWS V12.07,2013-05-10 21:55:00,
2013-05-10 17:00:00,48.4,38.7,29.85,North,0,0.0,0.0,69,0.00,,,-99.99,VWS V12.07,2013-05-10 22:00:00,
2013-05-10 17:05:00,48.4,38.7,29.85,North,0,0.0,0.0,69,0.00,,,-99.99,VWS V12.07,2013-05-10 22:05:00,
2013-05-10 17:10:00,48.4,38.7,29.85,North,0,0.0,0.0,69,0.00,,,-99.99,VWS V12.07,2013-05-10 22:10:00,
2013-05-10 17:15:00,48.4,38.7,29.85,North,0,0.0,0.0,69,0.00,,,-99.99,VWS V12.07,2013-05-10 22:15:00,
2013-05-10 17:20:00,48.6,38.9,29.85,North,0,0.0,0.0,69,0.00,,,-99.99,VWS V12.07,2013-05-10 22:20:00,
2013-05-10 17:30:00,48.6,38.9,29.85,North,0,0.0,0.0,69,0.00,,,-99.99,VWS V12.07,2013-05-10 22:30:00,
2013-05-10 17:35:00,48.7,39.0,29.85,North,0,0.0,0.0,69,0.00,,,-99.99,VWS V12.07,2013-05-10 22:35:00,
2013-05-10 17:40:00,48.7,39.0,29.85,North,0,0.0,0.0,69,0.00,,,-99.99,VWS V12.07,2013-05-10 22:40:00,
2013-05-10 17:45:00,48.7,39.0,29.85,North,0,0.0,0.0,69,0.00,,,-99.99,VWS V12.07,2013-05-10 22:45:00,
2013-05-10 17:50:00,48.6,38.9,29.85,North,0,0.0,0.0,69,0.00,,,-99.99,VWS V12.07,2013-05-10 22:50:00,
2013-05-10 18:00:00,48.6,38.9,29.85,North,0,0.0,0.0,69,0.00,,,-99.99,VWS V12.07,2013-05-10 23:00:00,
2013-05-10 18:10:00,48.6,38.9,29.85,North,0,0.0,0.0,69,0.00,,,-99.99,VWS V12.07,2013-05-10 23:10:00,
2013-05-10 18:15:00,48.6,38.9,29.85,North,0,0.0,0.0,69,0.00,,,-99.99,VWS V12.07,2013-05-10 23:15:00,
2013-05-10 18:20:00,48.7,39.0,29.85,North,0,0.0,0.0,69,0.00,,,-99.99,VWS V12.07,2013-05-10 23:20:00,
2013-05-10 18:30:00,48.7,39.0,29.85,North,0,0.0,0.0,69,0.00,,,-99.99,VWS V12.07,2013-05-10 23:30:00,
2013-05-10 18:35:00,48.7,39.0,29.85,North,0,0.0,0.0,69,0.00,,,-99.99,VWS V12.07,2013-05-10 23:35:00,
2013-05-10 18:40:00,48.6,38.9,29.85,North,0,0.0,0.0,69,0.00,,,-99.99,VWS V12.07,2013-05-10 23:40:00,
2013-05-10 18:45:00,48.6,38.9,29.85,North,0,0.0,0.0,69,0.00,,,-99.99,VWS V12.07,2013-05-10 23:45:00,
2013-05-10 18:50:00,48.6,38.9,29.85,North,0,0.0,0.0,69,0.00,,,-99.99,VWS V12.07,2013-05-10 23:50:00,
2013-05-10 19:00:00,48.6,38.9,29.85,North,0,0.0,0.0,69,0.00,,,-99.99,VWS V12.07,2013-05-11 00:00:00,
2013-05-10 19:05:00,48.6,38.9,29.85,North,0,0.0,0.0,69,0.00,,,-99.99,VWS V12.07,2013-05-11 00:05:00,
2013-05-10 19:10:00,48.6,38.9,29.85,North,0,0.0,0.0,69,0.00,,,-99.99,VWS V12.07,2013-05-11 00:10:00,
2013-05-10 19:15:00,48.6,38.9,29.85,North,0,0.0,0.0,69,0.00,,,-99.99,VWS V12.07,2013-05-11 00:15:00,
2013-05-10 19:20:00,48.4,38.7,29.85,North,0,0.0,0.0,69,0.00,,,-99.99,VWS V12.07,2013-05-11 00:20:00,
2013-05-10 19:30:00,48.0,38.3,29.85,North,0,0.0,0.0,69,0.00,,,-99.99,VWS V12.07,2013-05-11 00:30:00,
2013-05-10 19:35:00,47.8,38.2,29.85,North,0,0.0,0.0,69,0.00,,,-99.99,VWS V12.07,2013-05-11 00:35:00,
2013-05-10 19:40:00,47.5,37.5,29.85,North,0,0.0,0.0,68,0.00,,,-99.99,VWS V12.07,2013-05-11 00:40:00,
2013-05-10 19:45:00,47.1,37.1,29.85,North,0,0.0,0.0,68,0.00,,,-99.99,VWS V12.07,2013-05-11 00:45:00,
2013-05-10 19:50:00,46.9,36.9,29.85,North,0,0.0,0.0,68,0.00,,,-99.99,VWS V12.07,2013-05-11 00:50:00,
2013-05-10 20:00:00,46.8,37.1,29.85,North,0,0.0,0.0,69,0.00,,,-99.99,VWS V12.07,2013-05-11 01:00:00,
2013-05-10 20:10:00,46.8,37.1,29.85,North,0,0.0,0.0,69,0.00,,,-99.99,VWS V12.07,2013-05-11 01:10:00,
2013-05-10 20:15:00,46.8,37.1,29.85,North,0,0.0,0.0,69,0.00,,,-99.99,VWS V12.07,2013-05-11 01:15:00,
2013-05-10 20:25:00,46.6,37.3,29.88,North,0,0.0,0.0,70,0.00,,,-99.99,VWS V12.07,2013-05-11 01:25:00,
2013-05-10 20:30:00,46.4,37.2,29.88,North,0,0.0,0.0,70,0.00,,,-99.99,VWS V12.07,2013-05-11 01:30:00,
2013-05-10 20:35:00,46.2,37.0,29.88,North,0,0.0,0.0,70,0.00,,,-99.99,VWS V12.07,2013-05-11 01:35:00,
2013-05-10 20:40:00,46.2,37.0,29.88,North,0,0.0,0.0,70,0.00,,,-99.99,VWS V12.07,2013-05-11 01:40:00,
2013-05-10 20:45:00,46.2,37.0,29.88,North,0,0.0,0.0,70,0.00,,,-99.99,VWS V12.07,2013-05-11 01:45:00,
2013-05-10 20:55:00,45.9,36.6,29.88,North,0,0.0,0.0,70,0.00,,,-99.99,VWS V12.07,2013-05-11 01:55:00,
2013-05-10 21:00:00,45.9,36.6,29.88,North,0,0.0,0.0,70,0.00,,,-99.99,VWS V12.07,2013-05-11 02:00:00,
2013-05-10 21:10:00,45.7,36.8,29.88,North,0,0.0,0.0,71,0.00,,,-99.99,VWS V12.07,2013-05-11 02:10:00,
2013-05-10 21:15:00,45.7,36.8,29.88,North,0,0.0,0.0,71,0.00,,,-99.99,VWS V12.07,2013-05-11 02:15:00,
2013-05-10 21:25:00,45.7,36.8,29.88,North,0,0.0,0.0,71,0.00,,,-99.99,VWS V12.07,2013-05-11 02:25:00,
2013-05-10 21:30:00,45.5,36.7,29.88,North,0,0.0,0.0,71,0.00,,,-99.99,VWS V12.07,2013-05-11 02:30:00,
2013-05-10 21:35:00,45.5,36.7,29.88,North,0,0.0,0.0,71,0.00,,,-99.99,VWS V12.07,2013-05-11 02:35:00,
2013-05-10 21:40:00,45.5,36.7,29.88,North,0,0.0,0.0,71,0.00,,,-99.99,VWS V12.07,2013-05-11 02:40:00,
2013-05-10 21:46:00,45.3,36.5,29.88,North,0,0.0,0.0,71,0.00,,,-99.99,VWS V12.07,2013-05-11 02:46:00,
2013-05-10 21:55:00,45.1,36.3,29.88,North,0,0.0,0.0,71,0.00,,,-99.99,VWS V12.07,2013-05-11 02:55:00,
2013-05-10 22:00:00,45.0,36.5,29.88,North,0,0.0,0.0,72,0.00,,,-99.99,VWS V12.07,2013-05-11 03:00:00,
2013-05-10 22:05:00,44.8,36.3,29.88,North,0,0.0,0.0,72,0.00,,,-99.99,VWS V12.07,2013-05-11 03:05:00,
2013-05-10 22:10:00,44.6,36.2,29.88,North,0,0.0,0.0,72,0.00,,,-99.99,VWS V12.07,2013-05-11 03:10:00,
2013-05-10 22:15:00,44.6,36.2,29.88,North,0,0.0,0.0,72,0.00,,,-99.99,VWS V12.07,2013-05-11 03:15:00,
2013-05-10 22:20:00,44.6,36.2,29.88,North,0,0.0,0.0,72,0.00,,,-99.99,VWS V12.07,2013-05-11 03:20:00,
2013-05-10 22:25:00,44.6,36.2,29.88,North,0,0.0,0.0,72,0.00,,,-99.99,VWS V12.07,2013-05-11 03:25:00,
2013-05-10 22:30:00,44.6,36.5,29.88,North,0,0.0,0.0,73,0.00,,,-99.99,VWS V12.07,2013-05-11 03:30:00,
2013-05-10 22:35:00,44.6,36.5,29.88,North,0,0.0,0.0,73,0.00,,,-99.99,VWS V12.07,2013-05-11 03:35:00,
2013-05-10 22:40:00,44.6,36.5,29.88,North,0,0.0,0.0,73,0.00,,,-99.99,VWS V12.07,2013-05-11 03:40:00,
2013-05-10 22:45:00,44.6,36.5,29.88,North,0,0.0,0.0,73,0.00,,,-99.99,VWS V12.07,2013-05-11 03:45:00,
2013-05-10 22:55:00,44.6,36.8,29.88,North,0,0.0,0.0,74,0.00,,,-99.99,VWS V12.07,2013-05-11 03:55:00,
2013-05-10 23:00:00,44.6,36.8,29.88,North,0,0.0,0.0,74,0.00,,,-99.99,VWS V12.07,2013-05-11 04:00:00,
2013-05-10 23:05:00,44.6,36.8,29.85,North,0,0.0,0.0,74,0.00,,,-99.99,VWS V12.07,2013-05-11 04:05:00,
2013-05-10 23:10:00,44.4,36.7,29.85,North,0,0.0,0.0,74,0.00,,,-99.99,VWS V12.07,2013-05-11 04:10:00,
2013-05-10 23:15:00,44.4,36.7,29.85,North,0,0.0,0.0,74,0.00,,,-99.99,VWS V12.07,2013-05-11 04:15:00,
2013-05-10 23:25:00,43.9,36.1,29.85,North,0,0.0,0.0,74,0.00,,,-99.99,VWS V12.07,2013-05-11 04:25:00,
2013-05-10 23:30:00,43.5,35.8,29.85,North,0,0.0,0.0,74,0.00,,,-99.99,VWS V12.07,2013-05-11 04:30:00,
2013-05-10 23:35:00,43.5,35.8,29.85,North,0,0.0,0.0,74,0.00,,,-99.99,VWS V12.07,2013-05-11 04:35:00,
2013-05-10 23:40:00,43.3,36.0,29.85,North,0,0.0,0.0,75,0.00,,,-99.99,VWS V12.07,2013-05-11 04:40:00,
2013-05-10 23:45:00,43.3,36.0,29.85,North,0,0.0,0.0,75,0.00,,,-99.99,VWS V12.07,2013-05-11 04:45:00,
2013-05-10 23:50:00,43.2,35.8,29.85,North,0,0.0,0.0,75,0.00,,,-99.99,VWS V12.07,2013-05-11 04:50:00,
2013-05-10 23:55:00,42.8,35.4,29.85,North,0,0.0,0.0,75,0.00,,,-99.99,VWS V12.07,2013-05-11 04:55:00,